Time;durP1;ratioP1;P1;durP2;ratioP2;P2;SDS_P1;SDS_P2;PMS_P1;PMS_P2;Temp;Humidity;BMP_temperature;BMP_pressure;BME280_temperature;BME280_humidity;BME280_pressure;Samples;Min_cycle;Max_cycle;Signal;HPM_P1;HPM_P2
2022/05/28 00:01:58;;;;;;;2.15;1.70;;;13.00;58.50;;;;;;5046828;28;20619;-56
2022/05/28 00:04:28;;;;;;;2.58;1.70;;;13.00;58.70;;;;;;5051203;28;20204;-56
2022/05/28 00:06:59;;;;;;;3.20;1.52;;;13.00;58.70;;;;;;5050139;28;20205;-52
2022/05/28 00:09:29;;;;;;;2.42;1.50;;;13.10;58.80;;;;;;5049689;28;20270;-55
2022/05/28 00:12:00;;;;;;;2.60;1.67;;;13.10;58.90;;;;;;5047600;28;20670;-52
2022/05/28 00:14:30;;;;;;;3.88;2.13;;;13.10;58.90;;;;;;5048932;28;20659;-52
2022/05/28 00:17:03;;;;;;;2.83;1.73;;;13.10;59.00;;;;;;5047357;28;20709;-55
2022/05/28 00:19:33;;;;;;;2.33;1.40;;;13.20;59.10;;;;;;5050008;28;20187;-51
2022/05/28 00:22:04;;;;;;;2.40;2.05;;;13.20;58.90;;;;;;5049962;28;20652;-53
2022/05/28 00:24:34;;;;;;;4.50;1.98;;;13.30;58.90;;;;;;5049803;28;20242;-54
2022/05/28 00:27:05;;;;;;;3.20;1.70;;;13.30;59.00;;;;;;5043989;28;20654;-55
2022/05/28 00:29:36;;;;;;;2.25;1.55;;;13.30;59.00;;;;;;5048727;28;20787;-54
2022/05/28 00:32:09;;;;;;;3.47;1.88;;;13.30;58.90;;;;;;5047760;28;20560;-51
2022/05/28 00:34:40;;;;;;;2.35;1.70;;;13.40;58.80;;;;;;5047536;28;20207;-55
2022/05/28 00:37:11;;;;;;;2.25;1.58;;;13.40;58.70;;;;;;5047854;28;20219;-51
2022/05/28 00:39:41;;;;;;;3.97;1.60;;;13.40;58.70;;;;;;5048505;28;20249;-52
2022/05/28 00:42:12;;;;;;;2.53;1.65;;;13.40;58.70;;;;;;5047112;28;20191;-54
2022/05/28 00:44:43;;;;;;;2.13;1.63;;;13.50;58.70;;;;;;5047858;28;20207;-52
2022/05/28 00:47:16;;;;;;;6.65;3.00;;;13.50;58.70;;;;;;5047916;28;20200;-52
2022/05/28 00:49:47;;;;;;;6.03;2.50;;;13.50;60.30;;;;;;5047912;28;20226;-50
2022/05/28 00:52:19;;;;;;;6.45;2.25;;;13.50;61.30;;;;;;5045572;28;20253;-54
2022/05/28 00:54:51;;;;;;;5.68;2.25;;;13.60;61.40;;;;;;5042673;28;20215;-55
2022/05/28 00:57:24;;;;;;;7.50;2.45;;;13.60;61.10;;;;;;5046742;28;20772;-54
2022/05/28 00:59:55;;;;;;;6.45;3.13;;;13.70;61.00;;;;;;5047212;28;20191;-55
2022/05/28 01:02:38;;;;;;;3.83;2.17;;;13.70;60.80;;;;;;5048035;28;20674;-51
2022/05/28 01:05:13;;;;;;;8.93;3.40;;;13.80;60.90;;;;;;5048491;28;20216;-54
2022/05/28 01:07:53;;;;;;;8.35;3.45;;;13.80;60.80;;;;;;5046061;28;20200;-55
2022/05/28 01:10:31;;;;;;;8.05;3.20;;;13.80;60.70;;;;;;5046772;28;20282;-54
2022/05/28 01:13:09;;;;;;;9.07;4.13;;;13.90;60.70;;;;;;5047697;28;20611;-54
2022/05/28 01:15:45;;;;;;;6.53;3.30;;;13.90;60.60;;;;;;5047598;28;20800;-53
2022/05/28 01:18:22;;;;;;;5.80;3.17;;;13.90;60.40;;;;;;5047855;28;20223;-55
2022/05/28 01:20:56;;;;;;;7.22;3.33;;;14.00;60.30;;;;;;5046846;28;20195;-50
2022/05/28 01:23:43;;;;;;;8.63;3.83;;;14.00;60.00;;;;;;5048008;28;20200;-55
2022/05/28 01:26:20;;;;;;;8.18;3.90;;;14.10;60.00;;;;;;5029537;28;20654;-54
2022/05/28 01:28:57;;;;;;;9.40;4.53;;;14.10;59.90;;;;;;5012457;28;20572;-55
2022/05/28 01:31:31;;;;;;;9.05;4.00;;;14.10;59.70;;;;;;5012398;28;20609;-52
2022/05/28 01:34:05;;;;;;;8.63;4.00;;;14.10;59.70;;;;;;5012480;28;20200;-55
2022/05/28 01:36:37;;;;;;;8.93;4.07;;;14.20;59.70;;;;;;5012158;28;20224;-52
2022/05/28 01:39:09;;;;;;;10.02;4.25;;;14.20;59.70;;;;;;5011787;28;20204;-54
2022/05/28 01:41:42;;;;;;;8.32;4.13;;;14.30;59.70;;;;;;5016405;28;20614;-51
2022/05/28 01:44:17;;;;;;;9.27;4.03;;;14.20;59.60;;;;;;5031708;28;20192;-53
2022/05/28 01:46:49;;;;;;;6.35;3.70;;;14.30;59.60;;;;;;5031118;28;20195;-52
2022/05/28 01:49:22;;;;;;;6.75;4.03;;;14.30;59.50;;;;;;5031218;28;20277;-54
2022/05/28 01:51:56;;;;;;;8.25;4.13;;;14.30;59.40;;;;;;5031652;28;20196;-53
2022/05/28 01:54:31;;;;;;;9.23;4.43;;;14.30;59.40;;;;;;5031675;28;20254;-55
2022/05/28 01:57:02;;;;;;;9.05;4.35;;;14.40;59.40;;;;;;5031352;28;20235;-53
2022/05/28 01:59:36;;;;;;;7.20;3.95;;;14.40;59.30;;;;;;5031738;28;20204;-55
2022/05/28 02:02:08;;;;;;;8.70;4.22;;;14.40;59.30;;;;;;5031617;28;20195;-54
2022/05/28 02:04:40;;;;;;;7.72;3.67;;;14.40;59.30;;;;;;5031679;28;20176;-56
2022/05/28 02:07:11;;;;;;;8.57;3.92;;;14.50;59.30;;;;;;5031107;28;20242;-55
2022/05/28 02:09:44;;;;;;;7.30;3.65;;;14.50;59.20;;;;;;5031233;28;20255;-56
2022/05/28 02:12:26;;;;;;;7.78;3.97;;;14.50;59.20;;;;;;5031284;28;20275;-56
2022/05/28 02:15:15;;;;;;;7.78;3.47;;;14.60;59.20;;;;;;5031213;28;20223;-56
2022/05/28 02:17:52;;;;;;;6.32;3.50;;;14.60;59.20;;;;;;5031321;28;20246;-54
2022/05/28 02:20:31;;;;;;;9.68;3.97;;;14.60;59.10;;;;;;5031381;28;20192;-54
2022/05/28 02:23:08;;;;;;;7.03;4.43;;;14.70;59.10;;;;;;5031270;28;20195;-55
2022/05/28 02:25:42;;;;;;;5.97;3.65;;;14.70;59.10;;;;;;5031014;28;20266;-55
2022/05/28 02:28:14;;;;;;;7.47;3.58;;;14.70;59.10;;;;;;5030527;28;20294;-53
2022/05/28 02:31:13;;;;;;;6.55;3.80;;;14.70;59.00;;;;;;5030822;28;20249;-54
2022/05/28 02:33:44;;;;;;;5.15;3.55;;;14.80;59.10;;;;;;5030891;28;20196;-56
2022/05/28 02:36:16;;;;;;;7.05;3.55;;;14.80;59.00;;;;;;5030943;28;20220;-56
2022/05/28 02:38:47;;;;;;;7.38;3.72;;;14.80;59.00;;;;;;5030939;28;20281;-56
2022/05/28 02:41:18;;;;;;;6.38;3.75;;;14.90;59.00;;;;;;5030766;28;20200;-55
2022/05/28 02:43:48;;;;;;;6.47;3.35;;;14.90;59.00;;;;;;5030941;28;20246;-55
2022/05/28 02:46:24;;;;;;;7.05;3.80;;;14.90;59.00;;;;;;5030977;28;20250;-52
2022/05/28 02:48:54;;;;;;;7.72;3.75;;;15.00;59.10;;;;;;5030882;28;20200;-56
2022/05/28 02:51:25;;;;;;;7.15;3.85;;;14.90;59.00;;;;;;5030661;28;20196;-55
2022/05/28 02:53:57;;;;;;;4.78;3.25;;;15.00;59.00;;;;;;5030535;28;20254;-56
2022/05/28 02:56:27;;;;;;;6.22;3.50;;;15.10;59.00;;;;;;5021487;28;20221;-54
2022/05/28 02:59:00;;;;;;;6.50;3.60;;;15.10;59.00;;;;;;5010750;28;20308;-56
2022/05/28 03:01:34;;;;;;;5.30;3.15;;;15.10;59.00;;;;;;5011131;28;20232;-55
2022/05/28 03:04:06;;;;;;;6.55;3.58;;;15.20;59.00;;;;;;5010364;28;20192;-55
2022/05/28 03:06:37;;;;;;;7.68;3.40;;;15.20;59.00;;;;;;5011583;28;20299;-55
2022/05/28 03:09:08;;;;;;;6.10;3.90;;;15.20;58.90;;;;;;5011275;28;20300;-52
2022/05/28 03:11:40;;;;;;;7.57;3.63;;;15.30;58.90;;;;;;5011247;28;20193;-56
2022/05/28 03:14:11;;;;;;;5.07;3.38;;;15.30;58.90;;;;;;5030559;28;20287;-55
2022/05/28 03:16:44;;;;;;;6.57;3.30;;;15.30;58.90;;;;;;5030399;28;20220;-56
2022/05/28 03:19:14;;;;;;;7.68;3.80;;;15.40;58.80;;;;;;5030434;28;20613;-54
2022/05/28 03:21:44;;;;;;;8.00;3.35;;;15.40;58.80;;;;;;5030420;28;20283;-54
2022/05/28 03:24:15;;;;;;;5.10;3.53;;;15.40;58.80;;;;;;5030848;28;20279;-54
2022/05/28 03:26:45;;;;;;;6.03;3.65;;;15.50;58.70;;;;;;5030471;28;20260;-56
2022/05/28 03:29:16;;;;;;;4.90;3.10;;;15.50;58.70;;;;;;5030908;28;20215;-55
2022/05/28 03:31:49;;;;;;;6.57;3.63;;;15.50;58.70;;;;;;5030764;28;20200;-53
2022/05/28 03:34:22;;;;;;;6.30;3.50;;;15.50;58.70;;;;;;5032682;28;20200;-56
2022/05/28 03:36:53;;;;;;;5.10;3.65;;;15.60;58.70;;;;;;5033704;28;20232;-55
2022/05/28 03:39:23;;;;;;;5.22;3.38;;;15.60;58.70;;;;;;5034264;28;20200;-55
2022/05/28 03:41:54;;;;;;;5.72;3.22;;;15.60;58.60;;;;;;5033342;28;20200;-55
2022/05/28 03:44:24;;;;;;;5.38;3.35;;;15.70;58.70;;;;;;5033806;28;20192;-56
2022/05/28 03:46:57;;;;;;;6.22;3.20;;;15.70;58.70;;;;;;5033645;28;20262;-56
2022/05/28 03:49:31;;;;;;;4.80;2.95;;;15.70;58.60;;;;;;5033196;28;20250;-55
2022/05/28 03:52:01;;;;;;;4.75;3.20;;;15.80;58.70;;;;;;5033700;28;20262;-54
2022/05/28 03:54:32;;;;;;;4.75;3.35;;;15.80;58.60;;;;;;5033950;28;20590;-55
2022/05/28 03:57:06;;;;;;;5.22;3.20;;;15.80;58.60;;;;;;5032868;28;20204;-56
2022/05/28 03:59:37;;;;;;;5.28;3.25;;;15.90;58.60;;;;;;5033318;28;20200;-54
2022/05/28 04:02:10;;;;;;;5.40;3.40;;;15.90;58.50;;;;;;5033587;28;20246;-56
2022/05/28 04:04:40;;;;;;;4.20;2.78;;;16.00;58.60;;;;;;5033965;28;20542;-56
2022/05/28 04:07:12;;;;;;;5.93;3.10;;;16.00;58.50;;;;;;5033394;28;20614;-56
2022/05/28 04:09:43;;;;;;;4.82;3.17;;;16.00;58.50;;;;;;5033754;28;20196;-57
2022/05/28 04:12:14;;;;;;;6.25;3.25;;;16.00;58.40;;;;;;5033293;28;20196;-55
2022/05/28 04:14:44;;;;;;;5.18;2.95;;;16.10;58.40;;;;;;5033166;28;20250;-56
2022/05/28 04:17:17;;;;;;;4.82;3.38;;;16.10;58.30;;;;;;5032558;28;20212;-56
2022/05/28 04:19:48;;;;;;;5.22;3.05;;;16.10;58.30;;;;;;5032966;28;20200;-58
2022/05/28 04:22:19;;;;;;;5.30;3.17;;;16.10;58.20;;;;;;5032978;28;20199;-55
2022/05/28 04:24:50;;;;;;;4.40;2.88;;;16.20;58.20;;;;;;5033278;28;20216;-56
2022/05/28 04:27:20;;;;;;;4.88;2.97;;;16.20;58.20;;;;;;5032411;28;20674;-54
2022/05/28 04:29:51;;;;;;;3.53;2.88;;;16.20;58.20;;;;;;5032583;28;20199;-55
2022/05/28 04:32:23;;;;;;;5.25;3.10;;;16.20;58.10;;;;;;5032266;28;20269;-55
2022/05/28 04:34:54;;;;;;;4.72;3.20;;;16.20;58.10;;;;;;5032399;28;20216;-55
2022/05/28 04:37:24;;;;;;;5.22;3.40;;;16.30;58.10;;;;;;5033089;28;20266;-56
2022/05/28 04:39:55;;;;;;;4.65;3.20;;;16.20;58.00;;;;;;5032924;28;20196;-55
2022/05/28 04:42:25;;;;;;;4.78;3.35;;;16.30;58.00;;;;;;5032407;28;20232;-55
2022/05/28 04:44:56;;;;;;;4.35;2.83;;;16.30;58.00;;;;;;5032236;28;20750;-56
2022/05/28 04:47:28;;;;;;;4.75;2.85;;;16.30;57.90;;;;;;5032544;28;20231;-56
2022/05/28 04:49:59;;;;;;;4.60;2.97;;;16.30;57.90;;;;;;5032707;28;20204;-56
2022/05/28 04:52:30;;;;;;;4.82;2.80;;;16.30;57.80;;;;;;5032657;28;20656;-55
2022/05/28 04:55:00;;;;;;;5.28;3.58;;;16.30;57.80;;;;;;5032511;28;20246;-55
2022/05/28 04:57:31;;;;;;;4.75;3.22;;;16.30;57.80;;;;;;5028852;28;20212;-56
2022/05/28 05:00:01;;;;;;;5.47;3.00;;;16.30;57.80;;;;;;5012650;28;20730;-54
2022/05/28 05:02:34;;;;;;;3.90;2.75;;;16.30;57.80;;;;;;5012654;28;20538;-55
2022/05/28 05:05:04;;;;;;;3.70;2.92;;;16.30;57.80;;;;;;5013048;28;20236;-55
2022/05/28 05:07:35;;;;;;;3.83;2.92;;;16.30;57.70;;;;;;5012166;28;20196;-55
2022/05/28 05:10:06;;;;;;;4.80;3.38;;;16.30;57.70;;;;;;5012029;28;20255;-56
2022/05/28 05:12:36;;;;;;;3.85;3.13;;;16.30;57.70;;;;;;5013595;28;20267;-56
2022/05/28 05:15:07;;;;;;;3.80;2.70;;;16.30;58.30;;;;;;5031472;28;20315;-55
2022/05/28 05:17:40;;;;;;;4.38;2.80;;;16.30;57.60;;;;;;5031468;28;20246;-56
2022/05/28 05:20:13;;;;;;;5.53;3.28;;;16.30;57.60;;;;;;5031510;28;20608;-54
2022/05/28 05:22:44;;;;;;;5.05;3.10;;;16.30;57.60;;;;;;5032103;28;20196;-56
2022/05/28 05:25:15;;;;;;;4.63;3.10;;;16.30;57.60;;;;;;5032268;28;20225;-54
2022/05/28 05:27:46;;;;;;;3.47;2.97;;;16.30;57.60;;;;;;5031949;28;20607;-57
2022/05/28 05:30:18;;;;;;;3.95;3.00;;;16.30;57.50;;;;;;5032106;28;20533;-56
2022/05/28 05:32:50;;;;;;;4.55;3.20;;;16.30;57.50;;;;;;5032385;28;20656;-55
2022/05/28 05:35:23;;;;;;;4.22;2.60;;;16.30;57.50;;;;;;5031621;28;20269;-54
2022/05/28 05:37:54;;;;;;;3.97;3.20;;;16.30;57.50;;;;;;5031384;28;20247;-55
2022/05/28 05:40:24;;;;;;;4.75;3.13;;;16.30;57.50;;;;;;5031777;28;20246;-55
2022/05/28 05:42:58;;;;;;;5.68;2.95;;;16.30;57.50;;;;;;5031526;28;20840;-55
2022/05/28 05:45:28;;;;;;;5.28;2.78;;;16.30;57.50;;;;;;5031489;28;20216;-56
2022/05/28 05:48:01;;;;;;;4.38;2.78;;;16.20;57.40;;;;;;5031034;28;20247;-59
2022/05/28 05:50:31;;;;;;;3.95;2.72;;;16.20;57.40;;;;;;5031157;28;20227;-55
2022/05/28 05:53:02;;;;;;;3.88;3.05;;;16.20;57.40;;;;;;5031839;28;20242;-56
2022/05/28 05:55:32;;;;;;;4.75;3.20;;;16.20;57.40;;;;;;5031500;28;20224;-55
2022/05/28 05:58:04;;;;;;;4.13;2.95;;;16.20;57.40;;;;;;5030448;28;20274;-57
2022/05/28 06:00:34;;;;;;;4.90;3.45;;;16.20;57.40;;;;;;5031207;28;20192;-54
2022/05/28 06:03:07;;;;;;;3.85;2.72;;;16.20;57.40;;;;;;5030792;28;20210;-56
2022/05/28 06:05:38;;;;;;;3.72;2.80;;;16.20;57.40;;;;;;5031252;28;20216;-56
2022/05/28 06:08:09;;;;;;;5.20;3.30;;;16.20;57.40;;;;;;5031299;28;20200;-56
2022/05/28 06:10:39;;;;;;;4.55;3.13;;;16.20;57.40;;;;;;5031257;28;20257;-54
2022/05/28 06:13:10;;;;;;;3.53;2.88;;;16.10;57.30;;;;;;5031194;28;20229;-57
2022/05/28 06:15:40;;;;;;;4.35;3.00;;;16.20;57.30;;;;;;5031723;28;20274;-58
2022/05/28 06:18:14;;;;;;;5.28;3.45;;;16.10;57.40;;;;;;5031746;28;20224;-56
2022/05/28 06:20:45;;;;;;;4.68;3.53;;;16.10;57.60;;;;;;5031640;28;20250;-55
2022/05/28 06:23:15;;;;;;;6.13;3.53;;;16.10;57.60;;;;;;5031681;28;20293;-55
2022/05/28 06:25:46;;;;;;;4.88;3.50;;;16.10;57.50;;;;;;5031492;28;20215;-56
2022/05/28 06:28:17;;;;;;;5.47;3.75;;;16.10;57.50;;;;;;5030952;28;20562;-56
2022/05/28 06:30:49;;;;;;;4.95;3.53;;;16.10;57.50;;;;;;5031516;28;20254;-56
2022/05/28 06:33:22;;;;;;;6.70;4.15;;;16.10;57.50;;;;;;5031334;28;20208;-54
2022/05/28 06:35:58;;;;;;;4.40;3.45;;;16.10;57.60;;;;;;5030235;28;20216;-53
2022/05/28 06:38:29;;;;;;;6.63;4.00;;;16.00;57.50;;;;;;5030907;28;20831;-55
2022/05/28 06:41:00;;;;;;;5.72;3.97;;;16.00;57.50;;;;;;5030553;28;20191;-57
2022/05/28 06:43:31;;;;;;;4.07;3.65;;;16.00;57.50;;;;;;5030500;28;20195;-56
2022/05/28 06:46:04;;;;;;;6.72;4.13;;;16.00;57.50;;;;;;5030311;28;20252;-55
2022/05/28 06:48:37;;;;;;;7.40;4.43;;;16.00;57.40;;;;;;5030074;28;20204;-56
2022/05/28 06:51:08;;;;;;;4.82;4.10;;;16.00;57.40;;;;;;5030677;28;20210;-55
2022/05/28 06:53:41;;;;;;;5.32;4.47;;;16.00;57.40;;;;;;5030919;28;20258;-55
2022/05/28 06:56:13;;;;;;;5.35;4.25;;;15.90;57.30;;;;;;5030135;28;20208;-57
2022/05/28 06:58:44;;;;;;;6.32;4.70;;;15.90;57.30;;;;;;5030076;28;20282;-53
2022/05/28 07:01:15;;;;;;;5.82;4.55;;;15.90;57.30;;;;;;5013070;28;20193;-55
2022/05/28 07:03:48;;;;;;;6.57;5.00;;;15.90;57.30;;;;;;5011044;28;20262;-56
2022/05/28 07:06:18;;;;;;;6.35;4.65;;;15.80;57.30;;;;;;5010557;28;20217;-55
2022/05/28 07:08:49;;;;;;;6.38;4.97;;;15.80;57.30;;;;;;5012929;28;20249;-56
2022/05/28 07:11:20;;;;;;;6.63;4.68;;;15.80;57.30;;;;;;5014668;28;20277;-56
2022/05/28 07:13:50;;;;;;;6.75;5.25;;;15.80;57.30;;;;;;5019940;28;20197;-55
2022/05/28 07:16:21;;;;;;;5.15;4.30;;;15.80;57.30;;;;;;5034089;28;20279;-56
2022/05/28 07:18:53;;;;;;;7.35;4.75;;;15.80;57.30;;;;;;5034343;28;20289;-54
2022/05/28 07:21:24;;;;;;;6.00;5.10;;;15.70;57.30;;;;;;5034399;28;20200;-55
2022/05/28 07:23:55;;;;;;;5.60;4.97;;;15.70;57.40;;;;;;5034767;28;20246;-56
2022/05/28 07:26:26;;;;;;;5.35;4.35;;;15.70;57.40;;;;;;5034191;28;20302;-56
2022/05/28 07:28:56;;;;;;;5.85;4.47;;;15.60;57.30;;;;;;5034122;28;20194;-55
2022/05/28 07:31:27;;;;;;;5.57;4.47;;;15.60;57.30;;;;;;5033963;28;20229;-55
2022/05/28 07:33:59;;;;;;;6.05;4.45;;;15.60;57.30;;;;;;5033729;28;20710;-55
2022/05/28 07:36:31;;;;;;;4.53;4.13;;;15.60;57.40;;;;;;5033678;28;20725;-57
2022/05/28 07:39:02;;;;;;;6.28;4.88;;;15.60;57.40;;;;;;5033810;28;20319;-57
2022/05/28 07:41:32;;;;;;;6.03;4.30;;;15.60;57.30;;;;;;5033779;28;20652;-55
2022/05/28 07:44:03;;;;;;;5.18;4.10;;;15.60;57.40;;;;;;5033073;28;20288;-57
2022/05/28 07:46:35;;;;;;;5.30;4.18;;;15.50;57.30;;;;;;5034014;28;20212;-56
2022/05/28 07:49:08;;;;;;;5.28;3.97;;;15.50;57.30;;;;;;5033001;28;20200;-56
2022/05/28 07:51:39;;;;;;;4.72;4.22;;;15.50;57.30;;;;;;5033101;28;20659;-56
2022/05/28 07:54:10;;;;;;;5.85;4.38;;;15.50;57.40;;;;;;5033333;28;20301;-54
2022/05/28 07:56:40;;;;;;;5.47;4.13;;;15.50;57.40;;;;;;5033771;28;20305;-57
2022/05/28 07:59:11;;;;;;;5.07;4.20;;;15.50;57.40;;;;;;5033367;28;20282;-54
2022/05/28 08:01:41;;;;;;;4.82;3.72;;;15.40;57.40;;;;;;5032777;28;20200;-56
2022/05/28 08:04:14;;;;;;;4.72;3.95;;;15.40;58.00;;;;;;5033713;28;20278;-57
2022/05/28 08:06:45;;;;;;;5.70;4.28;;;15.40;57.40;;;;;;5034013;28;20262;-55
2022/05/28 08:09:16;;;;;;;4.88;4.10;;;15.40;57.40;;;;;;5033919;28;20207;-57
2022/05/28 08:11:47;;;;;;;4.70;4.05;;;15.40;57.50;;;;;;5032968;28;20276;-57
2022/05/28 08:14:17;;;;;;;4.40;4.00;;;15.40;57.50;;;;;;5032821;28;20197;-52
2022/05/28 08:16:48;;;;;;;4.85;3.90;;;15.40;57.50;;;;;;5033540;28;20224;-55
2022/05/28 08:19:20;;;;;;;4.35;3.83;;;15.40;57.50;;;;;;5032832;28;20286;-56
2022/05/28 08:24:40;;;;;;;5.93;4.15;;;15.30;57.60;;;;;;5032721;28;20198;-53
2022/05/28 08:27:10;;;;;;;4.20;3.67;;;15.30;57.50;;;;;;5032134;28;20547;-57
2022/05/28 08:29:41;;;;;;;3.97;3.45;;;15.30;57.50;;;;;;5032716;28;20335;-55
2022/05/28 08:32:16;;;;;;;5.03;3.95;;;15.30;57.60;;;;;;5032966;28;20200;-56
2022/05/28 08:34:49;;;;;;;5.20;3.80;;;15.30;57.60;;;;;;5033221;28;20670;-53
2022/05/28 08:37:19;;;;;;;5.18;3.65;;;15.30;57.50;;;;;;5032830;28;20246;-55
2022/05/28 08:39:50;;;;;;;4.32;3.55;;;15.30;57.60;;;;;;5033051;28;20228;-55
2022/05/28 08:42:26;;;;;;;4.20;3.78;;;15.30;57.60;;;;;;5032374;28;20200;-55
2022/05/28 08:44:58;;;;;;;4.60;3.60;;;15.30;57.60;;;;;;5032068;28;20223;-52
2022/05/28 08:47:32;;;;;;;3.95;3.42;;;15.20;57.50;;;;;;5032763;28;20200;-55
2022/05/28 08:50:06;;;;;;;4.78;3.80;;;15.20;57.60;;;;;;5031980;28;20203;-54
2022/05/28 08:52:43;;;;;;;4.80;3.40;;;15.20;57.60;;;;;;5032013;28;20195;-54
2022/05/28 08:55:17;;;;;;;3.70;3.17;;;15.20;57.60;;;;;;5032170;28;20293;-55
2022/05/28 08:57:58;;;;;;;3.90;3.45;;;15.20;57.60;;;;;;5032664;28;20214;-54
2022/05/28 09:00:36;;;;;;;3.83;3.42;;;15.20;57.60;;;;;;5031907;28;20224;-52
2022/05/28 09:03:10;;;;;;;4.18;3.30;;;15.20;57.60;;;;;;5030708;28;20603;-52
2022/05/28 09:05:51;;;;;;;4.55;3.40;;;15.20;57.60;;;;;;5013229;28;20271;-52
2022/05/28 09:08:29;;;;;;;4.68;3.30;;;15.20;57.70;;;;;;5012990;28;20293;-55
2022/05/28 09:11:04;;;;;;;4.07;3.10;;;15.10;57.60;;;;;;5012172;28;20567;-54
2022/05/28 09:13:41;;;;;;;4.35;3.47;;;15.10;57.60;;;;;;5012353;28;20254;-55
2022/05/28 09:16:18;;;;;;;4.60;3.60;;;15.10;57.60;;;;;;5030885;28;20684;-55
2022/05/28 09:18:50;;;;;;;5.65;3.47;;;15.10;57.60;;;;;;5032345;28;20191;-54
2022/05/28 09:21:23;;;;;;;3.30;2.97;;;15.10;57.60;;;;;;5032034;28;20928;-53
2022/05/28 09:23:58;;;;;;;3.42;3.10;;;15.10;57.60;;;;;;5031873;28;20681;-54
2022/05/28 09:26:34;;;;;;;4.22;3.35;;;15.10;57.60;;;;;;5031177;28;20698;-54
2022/05/28 09:29:17;;;;;;;3.95;3.30;;;15.10;57.60;;;;;;5031765;28;20203;-55
2022/05/28 09:32:01;;;;;;;3.38;3.08;;;15.10;57.70;;;;;;5031417;28;20609;-54
2022/05/28 09:34:45;;;;;;;4.18;3.10;;;15.00;57.60;;;;;;5031732;28;20845;-52
2022/05/28 09:37:29;;;;;;;3.75;3.30;;;15.00;57.80;;;;;;5030719;28;20566;-56
2022/05/28 09:40:04;;;;;;;3.58;3.03;;;15.00;57.90;;;;;;5030713;28;20219;-56
2022/05/28 09:42:50;;;;;;;5.32;3.38;;;15.00;57.90;;;;;;5047200;28;20191;-57
2022/05/28 09:45:34;;;;;;;4.55;2.90;;;15.00;57.90;;;;;;5046150;28;20211;-57
2022/05/28 09:48:04;;;;;;;3.92;3.17;;;15.00;57.90;;;;;;5048350;28;20191;-53
2022/05/28 09:50:44;;;;;;;3.15;2.85;;;15.00;57.90;;;;;;5048179;28;20188;-57
2022/05/28 09:56:18;;;;;;;3.85;3.00;;;15.00;57.90;;;;;;5047327;28;20235;-57
2022/05/28 09:58:49;;;;;;;4.20;3.05;;;15.00;57.80;;;;;;5048719;28;20279;-57
2022/05/28 10:01:23;;;;;;;4.63;3.20;;;15.00;57.80;;;;;;5047915;28;20245;-57
2022/05/28 10:06:50;;;;;;;3.95;3.50;;;15.00;58.40;;;;;;5047080;28;20765;-56
2022/05/28 10:09:25;;;;;;;3.83;2.85;;;15.00;57.80;;;;;;5048645;28;20195;-51
2022/05/28 10:11:57;;;;;;;2.55;2.35;;;15.00;57.80;;;;;;5047803;28;20248;-53
2022/05/28 10:14:30;;;;;;;3.25;2.70;;;14.90;57.80;;;;;;5047592;28;20256;-53
2022/05/28 10:17:02;;;;;;;3.83;3.00;;;15.00;57.80;;;;;;5047405;28;20222;-55
2022/05/28 10:19:40;;;;;;;2.95;2.55;;;15.00;57.90;;;;;;5047477;28;20227;-54
2022/05/28 10:22:18;;;;;;;3.25;2.78;;;15.00;57.90;;;;;;5048073;28;20245;-56
2022/05/28 10:24:53;;;;;;;2.92;2.60;;;15.00;58.20;;;;;;5046053;28;20248;-53
2022/05/28 10:27:33;;;;;;;3.28;2.50;;;15.00;57.90;;;;;;5047192;28;20191;-55
2022/05/28 10:30:08;;;;;;;3.38;2.53;;;14.90;57.90;;;;;;5047846;28;20265;-55
2022/05/28 10:32:40;;;;;;;3.53;3.05;;;14.90;57.80;;;;;;5042015;28;20284;-55
2022/05/28 10:35:17;;;;;;;3.47;2.70;;;14.90;57.90;;;;;;5046784;28;20224;-54
2022/05/28 10:37:48;;;;;;;2.88;2.53;;;14.90;57.90;;;;;;5047129;28;20199;-55
2022/05/28 10:40:26;;;;;;;3.05;2.65;;;14.90;57.80;;;;;;5046665;28;20277;-57
2022/05/28 10:43:01;;;;;;;2.58;2.30;;;14.90;57.80;;;;;;5049123;28;20571;-56
2022/05/28 10:45:38;;;;;;;3.13;2.67;;;14.90;57.80;;;;;;5051171;28;20215;-57
2022/05/28 10:48:33;;;;;;;3.40;2.70;;;14.90;57.80;;;;;;5052464;28;20199;-56
2022/05/28 10:51:15;;;;;;;2.78;2.55;;;14.90;57.80;;;;;;5048004;28;20199;-54
2022/05/28 10:53:59;;;;;;;3.00;2.60;;;14.90;57.70;;;;;;5049301;28;20201;-55
2022/05/28 10:56:53;;;;;;;2.55;2.25;;;14.90;57.80;;;;;;5050533;28;20312;-55
2022/05/28 10:59:44;;;;;;;3.10;2.22;;;14.90;57.80;;;;;;5050777;28;20253;-54
2022/05/28 11:02:36;;;;;;;2.72;2.53;;;14.90;57.80;;;;;;5050420;28;20293;-55
2022/05/28 11:05:18;;;;;;;3.17;2.72;;;14.90;57.80;;;;;;5051023;28;20211;-55
2022/05/28 11:07:56;;;;;;;3.10;2.25;;;14.90;57.80;;;;;;5050891;28;20257;-52
2022/05/28 11:10:39;;;;;;;3.22;2.58;;;14.90;57.80;;;;;;5048270;28;20231;-52
2022/05/28 11:13:33;;;;;;;3.95;2.50;;;14.90;57.90;;;;;;5051105;28;20188;-57
2022/05/28 11:16:30;;;;;;;2.28;2.05;;;14.80;57.80;;;;;;5050889;28;20208;-57
2022/05/28 11:19:20;;;;;;;2.90;2.33;;;14.80;57.80;;;;;;5051529;28;20214;-58
2022/05/28 11:22:19;;;;;;;2.72;2.22;;;14.90;58.40;;;;;;5051807;28;20742;-54
2022/05/28 11:24:55;;;;;;;2.85;2.30;;;14.80;57.80;;;;;;5050150;28;20235;-56
2022/05/28 11:27:43;;;;;;;2.40;2.20;;;14.80;57.80;;;;;;5050916;28;20269;-56
2022/05/28 11:30:19;;;;;;;3.00;2.67;;;14.90;57.80;;;;;;5050093;28;20294;-53
2022/05/28 11:32:55;;;;;;;2.30;2.10;;;14.80;57.80;;;;;;5050696;28;20195;-56
2022/05/28 11:35:39;;;;;;;2.72;2.25;;;14.80;57.80;;;;;;5050213;28;20211;-57
2022/05/28 11:38:16;;;;;;;2.58;2.17;;;14.80;57.80;;;;;;5049912;28;20193;-57
2022/05/28 11:40:56;;;;;;;2.67;2.20;;;14.80;57.80;;;;;;5050560;28;20238;-55
2022/05/28 11:43:30;;;;;;;3.13;2.30;;;14.80;57.90;;;;;;5050211;28;20191;-53
2022/05/28 11:46:11;;;;;;;2.95;2.40;;;14.80;57.80;;;;;;5050799;28;20215;-51
2022/05/28 11:51:41;;;;;;;2.42;2.20;;;14.80;57.80;;;;;;5047063;28;20268;-55
2022/05/28 11:54:18;;;;;;;2.45;2.20;;;14.80;57.80;;;;;;5023459;28;20251;-54
2022/05/28 11:56:51;;;;;;;2.85;2.30;;;14.80;57.80;;;;;;5033341;28;20315;-55
2022/05/28 11:59:26;;;;;;;2.55;2.15;;;14.80;57.80;;;;;;5032085;28;20227;-56
2022/05/28 12:02:02;;;;;;;2.83;2.17;;;14.80;57.80;;;;;;5031833;28;20207;-54
2022/05/28 12:04:33;;;;;;;1.90;1.70;;;14.80;57.90;;;;;;5032171;28;20199;-55
2022/05/28 12:07:10;;;;;;;2.25;2.05;;;14.80;57.80;;;;;;5031537;28;20192;-57
2022/05/28 12:09:46;;;;;;;2.60;1.98;;;14.80;57.80;;;;;;5032284;28;20266;-56
2022/05/28 12:12:20;;;;;;;2.10;1.70;;;14.80;57.70;;;;;;5031436;28;20195;-58
2022/05/28 12:15:04;;;;;;;2.08;1.90;;;14.80;57.70;;;;;;5031488;28;20604;-54
2022/05/28 12:17:37;;;;;;;2.35;2.15;;;14.80;57.70;;;;;;5031248;28;20274;-57
2022/05/28 12:20:11;;;;;;;2.50;1.85;;;14.80;57.70;;;;;;5031544;28;20297;-57
2022/05/28 12:22:54;;;;;;;1.65;1.55;;;14.80;57.70;;;;;;5030923;28;20203;-58
2022/05/28 12:25:33;;;;;;;2.38;1.95;;;14.70;57.70;;;;;;5027748;28;20266;-52
2022/05/28 12:28:11;;;;;;;3.03;2.05;;;14.70;57.60;;;;;;5023286;28;20196;-55
2022/05/28 12:31:01;;;;;;;2.38;1.90;;;14.70;57.60;;;;;;5031050;28;20196;-55
2022/05/28 12:33:35;;;;;;;1.90;1.70;;;14.70;57.60;;;;;;5031439;28;20196;-54
2022/05/28 12:36:15;;;;;;;2.10;1.88;;;14.70;57.70;;;;;;5031369;28;20224;-55
2022/05/28 12:38:54;;;;;;;2.38;2.00;;;14.70;57.70;;;;;;5030657;28;20192;-56
2022/05/28 12:41:28;;;;;;;2.63;1.90;;;14.70;57.70;;;;;;5030840;28;20325;-57
2022/05/28 12:44:03;;;;;;;2.45;1.98;;;14.70;57.70;;;;;;5031052;28;20716;-54
2022/05/28 12:46:50;;;;;;;2.22;1.95;;;14.70;57.70;;;;;;5031410;28;20216;-53
2022/05/28 12:49:29;;;;;;;2.08;1.88;;;14.70;57.70;;;;;;5030566;28;20719;-55
2022/05/28 12:52:30;;;;;;;1.98;1.63;;;14.70;57.60;;;;;;5030585;28;20600;-55
2022/05/28 12:55:07;;;;;;;1.63;1.52;;;14.70;57.60;;;;;;5025608;28;20212;-57
2022/05/28 12:57:38;;;;;;;1.98;1.77;;;14.70;58.10;;;;;;5031229;28;20204;-56
2022/05/28 13:00:14;;;;;;;2.30;1.80;;;14.70;57.60;;;;;;5030902;28;20328;-54
2022/05/28 13:02:48;;;;;;;1.98;1.70;;;14.70;57.60;;;;;;5030477;28;20196;-53
2022/05/28 13:05:30;;;;;;;1.50;1.40;;;14.70;57.60;;;;;;5030377;28;20212;-53
2022/05/28 13:08:05;;;;;;;2.00;1.52;;;14.70;57.60;;;;;;5030942;28;20224;-56
2022/05/28 13:10:36;;;;;;;2.92;1.75;;;14.70;57.60;;;;;;5030441;28;20254;-53
2022/05/28 13:13:21;;;;;;;2.65;1.90;;;14.70;57.50;;;;;;5030409;28;20267;-53
2022/05/28 13:16:26;;;;;;;1.67;1.52;;;14.70;57.60;;;;;;5030867;28;20220;-52
2022/05/28 13:19:23;;;;;;;1.67;1.50;;;14.60;58.10;;;;;;5020784;28;20192;-55
2022/05/28 13:22:08;;;;;;;1.65;1.55;;;14.60;57.50;;;;;;5027561;28;20259;-54
2022/05/28 13:25:04;;;;;;;1.63;1.42;;;14.60;57.50;;;;;;5010568;28;20258;-55
2022/05/28 13:28:12;;;;;;;1.67;1.58;;;14.60;57.50;;;;;;5010406;28;20207;-58
2022/05/28 13:30:44;;;;;;;2.83;1.40;;;14.60;57.50;;;;;;5010698;28;20197;-55
2022/05/28 13:33:17;;;;;;;1.85;1.50;;;14.60;57.50;;;;;;5010695;28;20517;-52
2022/05/28 13:35:52;;;;;;;1.50;1.27;;;14.60;57.40;;;;;;5010532;28;20271;-57
2022/05/28 13:38:29;;;;;;;2.03;1.60;;;14.60;57.50;;;;;;5020328;28;20298;-55